Orbital elements of FENGYUN 1C DEB
| Launched | 9 May 1999 |
| Flight ended | – |
| Launch site | Taiyuan Space Center, PRC |
| Owner | People's Republic of China |
| NORAD ID | 31185 |
| Date fetched |
Epoch osculation |
Inc. [°] |
Ecc. | RA asc node [hr] |
Arg Peri. [°] |
Mean anom [°] |
Mean motion [rev/day] |
Abs. mag |
| Date fetched |
Epoch osculation |
Inc. [°] |
Ecc. | RA asc node [hr] |
Arg Peri. [°] |
Mean anom [°] |
Mean motion [rev/day] |
Abs. mag |
| 2026 May 05 17:57 | 2026 May 04 05:55:09 | 98.8416 | 0.00436 | 8.1059 | 70.7490 | 289.8389 | 14.03110 | – |
| 2026 May 04 17:57 | 2026 Apr 28 06:09:33 | 98.8413 | 0.00418 | 7.7180 | 85.4922 | 289.8389 | 14.03110 | – |
| 2026 May 03 17:57 | 2026 Apr 28 06:09:33 | 98.8413 | 0.00418 | 7.7180 | 85.4922 | 289.8389 | 14.03110 | – |
| 2026 May 02 17:57 | 2026 Apr 28 06:09:33 | 98.8413 | 0.00418 | 7.7180 | 85.4922 | 289.8389 | 14.03110 | – |
| 2026 May 01 17:56 | 2026 Apr 28 06:09:33 | 98.8413 | 0.00418 | 7.7180 | 85.4922 | 289.8389 | 14.03110 | – |
| 2026 Apr 30 17:56 | 2026 Apr 28 06:09:33 | 98.8413 | 0.00418 | 7.7180 | 85.4922 | 289.8389 | 14.03110 | – |
| 2026 Apr 29 17:57 | 2026 Apr 21 06:26:19 | 98.8411 | 0.00416 | 7.2654 | 104.7367 | 289.8389 | 14.03110 | – |
| 2026 Apr 28 17:56 | 2026 Apr 21 06:26:19 | 98.8411 | 0.00416 | 7.2654 | 104.7367 | 289.8389 | 14.03110 | – |
| 2026 Apr 27 17:58 | 2026 Apr 21 06:26:19 | 98.8411 | 0.00416 | 7.2654 | 104.7367 | 289.8389 | 14.03110 | – |
| 2026 Apr 26 17:58 | 2026 Apr 21 06:26:19 | 98.8411 | 0.00416 | 7.2654 | 104.7367 | 289.8389 | 14.03110 | – |
| 2026 Apr 25 17:58 | 2026 Apr 21 06:26:19 | 98.8411 | 0.00416 | 7.2654 | 104.7367 | 289.8389 | 14.03110 | – |
| 2026 Apr 24 17:59 | 2026 Apr 21 06:26:19 | 98.8411 | 0.00416 | 7.2654 | 104.7367 | 289.8389 | 14.03110 | – |
| 2026 Apr 23 17:57 | 2026 Apr 19 06:31:05 | 98.8408 | 0.00415 | 7.1361 | 110.3415 | 289.8389 | 14.03110 | – |
| 2026 Apr 22 17:57 | 2026 Apr 19 06:31:05 | 98.8408 | 0.00415 | 7.1361 | 110.3415 | 289.8389 | 14.03110 | – |
| 2026 Apr 21 17:57 | 2026 Apr 19 06:31:05 | 98.8408 | 0.00415 | 7.1361 | 110.3415 | 289.8389 | 14.03110 | – |
| 2026 Apr 20 17:57 | 2026 Apr 19 06:31:05 | 98.8408 | 0.00415 | 7.1361 | 110.3415 | 289.8389 | 14.03110 | – |
| 2026 Apr 19 17:58 | 2026 Apr 19 06:31:05 | 98.8408 | 0.00415 | 7.1361 | 110.3415 | 289.8389 | 14.03110 | – |
| 2026 Apr 18 17:56 | 2026 Apr 11 17:06:16 | 98.8396 | 0.00413 | 6.6465 | 131.0369 | 289.8389 | 14.03110 | – |
| 2026 Apr 16 17:57 | 2026 Apr 11 17:06:16 | 98.8396 | 0.00413 | 6.6465 | 131.0369 | 289.8389 | 14.03110 | – |
| 2026 Apr 14 17:57 | 2026 Apr 11 17:06:16 | 98.8396 | 0.00413 | 6.6465 | 131.0369 | 289.8389 | 14.03110 | – |
| 2026 Apr 13 17:57 | 2026 Apr 11 17:06:16 | 98.8396 | 0.00413 | 6.6465 | 131.0369 | 289.8389 | 14.03110 | – |
| 2026 Apr 12 17:57 | 2026 Apr 05 05:21:43 | 98.8390 | 0.00411 | 6.2262 | 148.6139 | 289.8389 | 14.03110 | – |
| 2026 Apr 11 17:57 | 2026 Apr 05 05:21:43 | 98.8390 | 0.00411 | 6.2262 | 148.6139 | 289.8389 | 14.03110 | – |
| 2026 Apr 10 17:58 | 2026 Apr 05 05:21:43 | 98.8390 | 0.00411 | 6.2262 | 148.6139 | 289.8389 | 14.03110 | – |
| 2026 Apr 09 18:01 | 2026 Apr 05 05:21:43 | 98.8390 | 0.00411 | 6.2262 | 148.6139 | 289.8389 | 14.03110 | – |
| 2026 Apr 08 17:57 | 2026 Apr 05 05:21:43 | 98.8390 | 0.00411 | 6.2262 | 148.6139 | 289.8389 | 14.03110 | – |